Sheridan, WY

3:52 PM MDT on October 01, 2014 (GMT -0600)
Sheridan County | Change Station
CLOSE
Current Station
Airport
Location: Sheridan,
Elevation: 3967 ft
Nearby Weather Stations

Elev 3967 ft 44.76 °N, 106.97 °W | Updated 59 minutes ago

Mostly Cloudy
Mostly Cloudy
60 °F
Feels Like 60 °F
N
30
Wind Variable Wind from NW
Gusts 36 mph

Today
High -- | Low -- °F
--% Chance of Precip.
Yesterday
High -- | Low -- °F
Precip. -- in
7:05 AM 6:48 PM
Waxing Crescent, 51% visible
Pressure 29.62 in
Visibility 10.0 miles
Clouds Overcast 8000 ft
Dew Point 39 °F
Humidity 46%
Rainfall 0.02 in
Snow Depth 0 in , 1 in , 0 in
UV 1 out of 12
Pollen 3.40 out of 12
Air Quality Not available.
Flu Activity Not available.
METAR KSHR 302053Z AUTO 32026G31KT 10SM OVC080 16/04 A2966 RMK AO2 PK WND 33033/2036 SLP029 T01560039 55008

More Conditions Fewer Conditions

Pressure 29.62 in
Visibility 10.0 miles
Clouds Overcast 8000 ft
Dew Point 39 °F
Humidity 46%
Rainfall 0.02 in
Snow Depth 0 in , 1 in , 0 in
UV 1 out of 12
Pollen 3.40 out of 12
Air Quality Not available.
Flu Activity Not available.
METAR KSHR 302053Z AUTO 32026G31KT 10SM OVC080 16/04 A2966 RMK AO2 PK WND 33033/2036 SLP029 T01560039 55008

More Conditions Fewer Conditions

10-Day Weather Forecast

Almanac

Astronomy

Oct. 01, 2014 Rise Set
Actual Time 7:05 AM MDT 6:48 PM MDT
Civil Twilight 6:36 AM MDT 7:17 PM MDT
Nautical Twilight 6:02 AM MDT 7:51 PM MDT
Astronomical Twilight 5:28 AM MDT 8:25 PM MDT
Moon 2:19 PM MDT No Moon Set
Length of Visible Light 12h 40m
Length of Day
11h 42m
Tomorrow will be 3m 5s shorter.
Waxing Crescent, 51% of the Moon is Illuminated
Today
Waxing Crescent
Oct 8
Full
Oct 15
Last Quarter
Oct 23
New
Oct 30
First Quarter

Today's Extremes

State Highs State Lows

Community

WunderPhotos

Upload Photos

1,758,057 photos uploaded!

WunderBlogs® & News

By Dr. Jeff Masters
Director of Meteorology, Weather Underground
By Kari Strenfel
Meteorologist, Weather Underground
By Christopher C. Burt
Weather Historian, Weather Underground
October 1, 2014
October 1, 2014
October 1, 2014

Nearby

Snow Depth

Station Depth Elevation
Phillips Bench 0 in 8200 ft
Gros Ventre Summit 1 in 8750 ft
Reno Hill 0 in 8500 ft
Gunsight Pass 0 in 9820 ft
Little Warm 0 in 9370 ft

Earthquake Activity

City Distance Mag. Time & Date
No recent earthquake activity has been reported nearby.
Minimum magnitude displayed is 2.5.

Coastal Water Temperatures

Place Temperature
No Stations Reporting

Nearby Weather Stations